Time;durP1;ratioP1;P1;durP2;ratioP2;P2;SDS_P1;SDS_P2;PMS_P1;PMS_P2;Temp;Humidity;BMP_temperature;BMP_pressure;BME280_temperature;BME280_humidity;BME280_pressure;Samples;Min_cycle;Max_cycle;Signal;HPM_P1;HPM_P2
2022/04/01 00:01:48;;;;;;;;;2.75;0.00;;;;;5.27;44.89;100030.06;4958978;28;45332;-64
2022/04/01 00:04:14;;;;;;;;;1.00;1.00;;;;;5.27;44.96;100034.38;4958926;28;45656;-63
2022/04/01 00:06:39;;;;;;;;;1.50;1.00;;;;;5.20;44.71;100026.59;4975260;28;45407;-63
2022/04/01 00:09:05;;;;;;;;;1.00;0.00;;;;;5.23;44.62;100025.72;4978351;28;45366;-63
2022/04/01 00:11:30;;;;;;;;;2.50;1.00;;;;;5.16;44.83;100019.66;4978230;28;45360;-64
2022/04/01 00:13:56;;;;;;;;;1.00;1.00;;;;;5.13;44.93;100030.09;4978497;28;45202;-63
2022/04/01 00:16:21;;;;;;;;;2.00;1.00;;;;;5.13;45.31;100029.22;4990741;28;45420;-63
2022/04/01 00:18:46;;;;;;;;;2.75;1.75;;;;;5.09;44.98;100020.53;5020739;27;45917;-63
2022/04/01 00:21:12;;;;;;;;;0.75;0.25;;;;;5.05;45.13;100022.28;4957627;28;45170;-63
2022/04/01 00:23:37;;;;;;;;;2.00;1.00;;;;;5.05;44.69;100003.22;4958991;28;45249;-63
2022/04/01 00:26:03;;;;;;;;;1.00;1.00;;;;;5.05;44.81;100026.66;4958742;28;45493;-62
2022/04/01 00:28:28;;;;;;;;;2.50;1.25;;;;;5.00;44.88;100021.44;4958798;28;46304;-62
2022/04/01 00:30:54;;;;;;;;;1.00;1.00;;;;;4.97;44.88;100016.25;4958782;28;45477;-63
2022/04/01 00:33:20;;;;;;;;;1.50;1.50;;;;;4.96;44.91;100018.88;4957347;28;45399;-63
2022/04/01 00:35:46;;;;;;;;;1.00;0.75;;;;;4.92;45.26;100006.72;4958349;28;45312;-63
2022/04/01 00:38:12;;;;;;;;;0.00;0.00;;;;;4.91;45.27;100018.03;4958761;28;45430;-63
2022/04/01 00:40:37;;;;;;;;;1.00;1.00;;;;;4.87;44.98;100028.44;4958414;28;45331;-64
2022/04/01 00:43:03;;;;;;;;;3.75;1.00;;;;;4.86;45.03;100013.66;4958827;28;45390;-63
2022/04/01 00:45:29;;;;;;;;;2.50;1.00;;;;;4.87;44.88;100019.75;4957108;28;45872;-63
2022/04/01 00:48:01;;;;;;;;;2.00;2.00;;;;;4.90;44.87;100005.88;4956556;28;47581;-63
2022/04/01 00:50:26;;;;;;;;;1.75;1.00;;;;;4.86;45.03;100010.22;4958319;28;45364;-63
2022/04/01 00:52:53;;;;;;;;;2.00;1.00;;;;;4.80;45.60;100003.25;4958876;28;45296;-63
2022/04/01 00:55:19;;;;;;;;;2.75;1.00;;;;;4.81;45.04;99999.78;4940744;28;45669;-63
2022/04/01 00:57:46;;;;;;;;;1.50;1.50;;;;;4.84;44.92;99997.22;4958326;28;45237;-63
2022/04/01 01:00:12;;;;;;;;;0.75;0.75;;;;;4.78;45.24;99998.94;4958208;28;45357;-63
2022/04/01 01:02:41;;;;;;;;;1.00;1.00;;;;;4.78;45.07;99999.81;4956851;28;45341;-63
2022/04/01 01:05:08;;;;;;;;;1.25;1.00;;;;;4.79;45.53;99996.34;4962018;28;45432;-64
2022/04/01 01:07:34;;;;;;;;;0.00;0.00;;;;;4.81;45.05;99988.53;4977693;28;45322;-63
2022/04/01 01:10:00;;;;;;;;;2.00;1.00;;;;;4.84;45.41;99983.31;4975809;28;46454;-62
2022/04/01 01:12:26;;;;;;;;;2.00;1.00;;;;;4.82;45.47;99983.31;4992851;28;45438;-63
2022/04/01 01:14:51;;;;;;;;;3.25;1.50;;;;;4.79;45.66;99965.13;4976155;28;45632;-63
2022/04/01 01:17:16;;;;;;;;;3.00;1.00;;;;;4.82;45.70;99982.47;5028709;28;45362;-63
2022/04/01 01:19:45;;;;;;;;;1.25;1.25;;;;;4.82;45.25;99967.69;4988131;28;46207;-63
2022/04/01 01:22:12;;;;;;;;;2.00;1.25;;;;;4.86;45.55;99960.75;4967449;28;45513;-63
2022/04/01 01:24:40;;;;;;;;;0.25;0.25;;;;;4.84;45.66;99965.06;4977090;28;45548;-63
2022/04/01 01:27:07;;;;;;;;;1.50;1.50;;;;;4.88;45.43;99964.22;4977143;27;46380;-63
2022/04/01 01:29:35;;;;;;;;;0.25;0.25;;;;;4.85;45.52;99959.84;4977153;28;45413;-63
2022/04/01 01:32:04;;;;;;;;;3.00;1.00;;;;;4.86;45.69;99955.53;4992195;28;45353;-63
2022/04/01 01:34:32;;;;;;;;;5.50;1.25;;;;;4.86;45.38;99952.94;4976940;28;45177;-63
2022/04/01 01:36:58;;;;;;;;;1.00;0.75;;;;;4.89;45.72;99926.88;4977038;28;46402;-63
2022/04/01 01:39:23;;;;;;;;;3.00;1.75;;;;;4.86;45.45;99950.34;4976848;28;45365;-63
2022/04/01 01:41:50;;;;;;;;;0.25;0.00;;;;;4.86;45.52;99939.91;4977353;28;45308;-63
2022/04/01 01:44:17;;;;;;;;;1.25;0.00;;;;;4.85;45.47;99930.38;4977254;28;45360;-62
2022/04/01 01:46:42;;;;;;;;;1.00;1.00;;;;;4.85;45.78;99953.78;4976927;28;45411;-63
2022/04/01 01:49:08;;;;;;;;;3.50;1.00;;;;;4.85;46.15;99936.44;4975523;28;45260;-63
2022/04/01 01:57:03;;;;;;;;;1.75;0.00;;;;;4.78;46.03;99907.81;4976769;28;45819;-63
2022/04/01 01:59:28;;;;;;;;;0.00;0.00;;;;;4.77;45.71;99914.78;4977795;28;45322;-63
2022/04/01 02:01:53;;;;;;;;;1.75;1.00;;;;;4.80;46.30;99913.91;4979894;28;45654;-63
2022/04/01 02:04:22;;;;;;;;;1.00;1.00;;;;;4.77;46.38;99899.16;4975609;28;45170;-63
2022/04/01 02:06:48;;;;;;;;;2.00;0.00;;;;;4.80;46.46;99906.94;4977816;28;47377;-63
2022/04/01 02:09:14;;;;;;;;;2.00;1.00;;;;;4.79;46.27;99901.75;4978419;28;45388;-63
2022/04/01 02:11:39;;;;;;;;;0.00;0.00;;;;;4.75;46.59;99908.69;4979724;28;45442;-63
2022/04/01 02:14:05;;;;;;;;;1.75;0.50;;;;;4.75;46.39;99913.06;4979799;28;45442;-63
2022/04/01 02:16:30;;;;;;;;;2.00;1.00;;;;;4.71;46.71;99893.97;4998462;28;45667;-63
2022/04/01 02:18:55;;;;;;;;;3.00;2.00;;;;;4.76;46.28;99891.38;5019170;27;45334;-63
2022/04/01 02:21:21;;;;;;;;;1.00;1.00;;;;;4.72;46.45;99898.31;4960477;28;45308;-62
2022/04/01 02:23:48;;;;;;;;;2.00;1.00;;;;;4.67;46.55;99885.31;4960444;28;45265;-62
2022/04/01 02:26:14;;;;;;;;;1.75;1.00;;;;;4.71;46.94;99886.16;4959881;28;46363;-63
2022/04/01 02:28:43;;;;;;;;;2.00;0.00;;;;;4.70;47.02;99879.22;4960137;28;45248;-62
2022/04/01 02:31:11;;;;;;;;;1.75;1.00;;;;;4.68;46.62;99892.25;4960172;28;45434;-63
2022/04/01 02:33:37;;;;;;;;;1.00;1.00;;;;;4.70;46.71;99877.50;4959819;28;45462;-63
2022/04/01 02:36:09;;;;;;;;;1.00;1.00;;;;;4.70;47.14;99893.13;4959753;28;46339;-62
2022/04/01 02:38:34;;;;;;;;;5.50;2.75;;;;;4.62;47.07;99883.59;4960016;28;45366;-62
2022/04/01 02:40:59;;;;;;;;;1.25;1.00;;;;;4.65;47.21;99886.19;4959851;28;45541;-62
2022/04/01 02:43:25;;;;;;;;;1.50;0.50;;;;;4.63;47.41;99878.38;4958910;28;45327;-62
2022/04/01 02:45:51;;;;;;;;;2.00;2.00;;;;;4.65;47.18;99880.97;4958473;28;47836;-62
2022/04/01 02:48:19;;;;;;;;;3.50;3.50;;;;;4.62;47.50;99879.25;4959584;28;45488;-62
2022/04/01 02:50:46;;;;;;;;;3.75;3.50;;;;;4.61;47.55;99869.72;4959958;28;45360;-62
2022/04/01 02:53:13;;;;;;;;;1.25;1.25;;;;;4.64;47.62;99882.72;4959706;28;45241;-62
2022/04/01 02:55:39;;;;;;;;;5.50;2.00;;;;;4.60;47.63;99872.31;4958072;28;48451;-63
2022/04/01 02:58:06;;;;;;;;;3.00;1.75;;;;;4.59;47.67;99870.59;4959689;28;45444;-63
2022/04/01 03:00:32;;;;;;;;;0.50;0.25;;;;;4.58;47.57;99859.31;4959836;28;45332;-62
2022/04/01 03:02:57;;;;;;;;;2.00;2.00;;;;;4.56;48.19;99869.72;4959676;28;45376;-63
2022/04/01 03:05:23;;;;;;;;;3.25;2.00;;;;;4.52;48.07;99867.16;4965394;28;46079;-63
2022/04/01 03:07:48;;;;;;;;;2.00;1.00;;;;;4.52;47.80;99864.56;4977999;28;45442;-63
2022/04/01 03:10:13;;;;;;;;;2.75;1.00;;;;;4.50;48.25;99868.88;4978928;28;45437;-62
2022/04/01 03:12:39;;;;;;;;;0.25;0.25;;;;;4.48;48.21;99865.44;4979203;28;45178;-62
2022/04/01 03:15:06;;;;;;;;;2.00;0.00;;;;;4.49;48.34;99849.81;4978773;28;46551;-62
2022/04/01 03:17:32;;;;;;;;;1.25;1.00;;;;;4.46;48.71;99852.41;5039985;28;45618;-62
2022/04/01 03:19:59;;;;;;;;;4.25;2.75;;;;;4.42;48.90;99842.91;4961882;27;45371;-62
2022/04/01 03:22:25;;;;;;;;;2.50;2.00;;;;;4.41;48.60;99837.72;4959550;28;45284;-63
2022/04/01 03:24:51;;;;;;;;;1.00;1.00;;;;;4.40;48.60;99842.03;4959162;28;45376;-62
2022/04/01 03:27:16;;;;;;;;;0.50;0.50;;;;;4.32;49.12;99836.00;4959407;28;45587;-63
2022/04/01 03:29:42;;;;;;;;;2.00;0.25;;;;;4.33;48.72;99840.34;4959380;28;45253;-62
2022/04/01 03:32:07;;;;;;;;;2.50;2.25;;;;;4.27;48.90;99840.34;4957950;28;45897;-62
2022/04/01 03:34:33;;;;;;;;;3.00;2.00;;;;;4.25;49.22;99837.72;4959200;28;45410;-62
2022/04/01 03:36:58;;;;;;;;;1.75;1.75;;;;;4.29;49.07;99849.00;4959438;28;45305;-63
2022/04/01 03:39:24;;;;;;;;;2.25;1.00;;;;;4.27;49.51;99836.00;4959124;28;45213;-63
2022/04/01 03:41:50;;;;;;;;;1.50;0.75;;;;;4.25;49.27;99836.88;4958027;28;45854;-64
2022/04/01 03:44:17;;;;;;;;;2.75;1.00;;;;;4.25;49.36;99831.69;4958945;28;45377;-63
2022/04/01 03:46:48;;;;;;;;;2.00;2.00;;;;;4.25;48.97;99836.88;4959092;28;45438;-63
2022/04/01 03:49:23;;;;;;;;;3.00;1.75;;;;;4.27;49.07;99829.94;4959153;28;45281;-63
2022/04/01 03:51:50;;;;;;;;;3.00;2.00;;;;;4.24;49.71;99838.63;4959062;28;45385;-63
2022/04/01 03:54:16;;;;;;;;;1.00;1.00;;;;;4.17;49.09;99826.50;4958993;28;45271;-62
2022/04/01 03:56:44;;;;;;;;;2.00;2.00;;;;;4.18;49.78;99823.03;4958990;28;45252;-62
2022/04/01 03:59:12;;;;;;;;;1.25;1.00;;;;;4.18;49.11;99829.09;4959221;28;45482;-63
2022/04/01 04:01:38;;;;;;;;;1.00;1.00;;;;;4.19;49.30;99829.97;4957352;28;45569;-63
2022/04/01 04:04:04;;;;;;;;;1.00;0.25;;;;;4.16;49.57;99833.41;4959078;28;46509;-62
2022/04/01 04:06:32;;;;;;;;;1.50;1.50;;;;;4.14;49.76;99834.28;4974037;28;45170;-63
2022/04/01 04:09:00;;;;;;;;;2.00;2.00;;;;;4.16;49.60;99835.16;4977156;28;45287;-63
2022/04/01 04:11:28;;;;;;;;;1.75;1.75;;;;;4.16;49.68;99832.56;4978123;28;45334;-63
2022/04/01 04:13:55;;;;;;;;;2.00;2.00;;;;;4.12;49.64;99820.44;4978403;28;47025;-63
2022/04/01 04:16:31;;;;;;;;;3.25;1.75;;;;;4.15;49.67;99833.44;4990152;28;45507;-64
2022/04/01 04:19:09;;;;;;;;;3.75;2.00;;;;;4.17;49.94;99840.34;5014208;27;45351;-63
2022/04/01 04:21:49;;;;;;;;;0.50;0.50;;;;;4.16;49.64;99833.41;4956835;28;45981;-63
2022/04/01 04:24:20;;;;;;;;;2.50;1.00;;;;;4.15;49.80;99823.91;4958553;28;46290;-64
2022/04/01 04:26:51;;;;;;;;;6.00;3.75;;;;;4.13;50.20;99819.59;4958725;28;45283;-63
2022/04/01 04:29:18;;;;;;;;;1.00;1.00;;;;;4.17;50.03;99829.09;4958670;28;45182;-63
2022/04/01 04:32:02;;;;;;;;;1.50;1.50;;;;;4.16;49.85;99824.75;4958324;28;45462;-63
2022/04/01 04:34:36;;;;;;;;;2.50;1.25;;;;;4.11;49.84;99819.56;4958445;28;46158;-63
2022/04/01 04:37:02;;;;;;;;;1.75;1.75;;;;;4.13;49.97;99820.44;4958664;28;45166;-63
2022/04/01 04:39:35;;;;;;;;;2.00;1.00;;;;;4.09;49.81;99810.91;4958318;28;45461;-63
2022/04/01 04:42:02;;;;;;;;;2.00;2.00;;;;;4.11;50.27;99816.97;4958508;28;45253;-63
2022/04/01 04:44:29;;;;;;;;;1.00;1.00;;;;;4.07;50.06;99808.34;4964811;28;46248;-63
2022/04/01 04:46:59;;;;;;;;;0.50;0.50;;;;;4.15;50.10;99823.91;4977500;28;45411;-62
2022/04/01 04:49:27;;;;;;;;;5.50;2.75;;;;;4.17;50.29;99832.56;4978135;28;45251;-63
2022/04/01 04:51:54;;;;;;;;;2.00;2.00;;;;;4.20;50.30;99832.56;4977776;28;45512;-63
2022/04/01 04:54:20;;;;;;;;;2.00;2.00;;;;;4.25;50.07;99836.88;4976363;28;45920;-63
2022/04/01 04:56:48;;;;;;;;;3.00;2.75;;;;;4.22;49.96;99829.94;4977597;28;45407;-63
2022/04/01 04:59:17;;;;;;;;;3.00;3.00;;;;;4.25;49.86;99836.88;4977880;28;45439;-63
2022/04/01 05:01:56;;;;;;;;;2.00;2.00;;;;;4.24;50.32;99828.22;4977368;28;45182;-63
2022/04/01 05:04:41;;;;;;;;;3.75;2.25;;;;;4.29;50.23;99841.19;4972933;28;48485;-62
2022/04/01 05:07:48;;;;;;;;;1.50;1.50;;;;;4.32;49.89;99828.19;4964791;28;45266;-63
2022/04/01 05:10:22;;;;;;;;;4.25;2.00;;;;;4.33;50.22;99843.78;4976070;28;45415;-62
2022/04/01 05:12:59;;;;;;;;;6.25;3.75;;;;;4.33;50.29;99835.97;4977274;28;45423;-62
2022/04/01 05:15:34;;;;;;;;;5.25;5.25;;;;;4.37;49.92;99852.44;4977307;28;46070;-62
2022/04/01 05:18:21;;;;;;;;;5.00;3.75;;;;;4.39;50.04;99851.56;5041084;28;45287;-63
2022/04/01 05:21:01;;;;;;;;;4.00;4.00;;;;;4.42;50.11;99862.84;4958009;28;45229;-62
2022/04/01 05:23:49;;;;;;;;;4.00;4.00;;;;;4.43;50.23;99854.16;4980947;28;45408;-62
2022/04/01 05:26:16;;;;;;;;;7.00;4.00;;;;;4.47;50.16;99861.09;4977160;28;45322;-62
2022/04/01 05:28:48;;;;;;;;;4.75;3.75;;;;;4.39;49.80;99845.53;4977317;28;45263;-63
2022/04/01 05:31:30;;;;;;;;;3.00;2.50;;;;;4.49;50.42;99862.81;4977336;28;45299;-62
2022/04/01 05:34:25;;;;;;;;;3.00;3.00;;;;;4.51;50.22;99871.47;4977279;28;45408;-63
2022/04/01 05:36:53;;;;;;;;;4.50;4.00;;;;;4.48;50.15;99874.09;4967442;28;46214;-62
2022/04/01 05:39:19;;;;;;;;;2.25;2.25;;;;;4.50;50.17;99861.06;4978534;28;45302;-62
2022/04/01 05:41:46;;;;;;;;;2.00;2.00;;;;;4.53;49.82;99879.28;4980249;28;45248;-63
2022/04/01 05:44:12;;;;;;;;;2.00;2.00;;;;;4.54;50.11;99874.09;4980071;28;45333;-62
2022/04/01 05:46:40;;;;;;;;;2.50;2.50;;;;;4.55;50.31;99870.63;4979740;28;45303;-62
2022/04/01 05:49:05;;;;;;;;;3.00;3.00;;;;;4.55;49.89;99875.81;4979841;28;45326;-63
2022/04/01 05:51:32;;;;;;;;;4.25;4.25;;;;;4.54;50.07;99881.88;4979904;28;45778;-63
2022/04/01 05:53:58;;;;;;;;;3.50;3.50;;;;;4.55;50.04;99865.41;4979694;28;45368;-64
2022/04/01 05:56:24;;;;;;;;;3.75;3.00;;;;;4.54;50.27;99884.50;4979680;28;45463;-61
2022/04/01 05:58:49;;;;;;;;;4.00;4.00;;;;;4.54;49.95;99875.81;4979667;28;45308;-62
2022/04/01 06:01:23;;;;;;;;;4.75;4.75;;;;;4.57;50.32;99894.03;4979713;28;45326;-62
2022/04/01 06:04:10;;;;;;;;;4.25;3.75;;;;;4.58;50.21;99895.75;4979363;28;45432;-61
2022/04/01 06:06:40;;;;;;;;;3.50;3.50;;;;;4.57;49.95;99896.63;4976112;28;45408;-62
2022/04/01 06:09:34;;;;;;;;;4.00;4.00;;;;;4.55;50.21;99904.44;4978266;28;45457;-62
2022/04/01 06:12:24;;;;;;;;;2.75;2.75;;;;;4.56;49.83;99913.09;4973525;28;45475;-64
2022/04/01 06:15:27;;;;;;;;;4.00;4.00;;;;;4.55;50.21;99916.56;4975979;28;45353;-62
2022/04/01 06:18:10;;;;;;;;;4.00;4.00;;;;;4.53;49.90;99915.72;4966524;28;46501;-62
2022/04/01 06:20:40;;;;;;;;;3.75;3.25;;;;;4.50;49.91;99919.22;4971154;28;45629;-60
2022/04/01 06:23:10;;;;;;;;;6.50;6.50;;;;;4.51;50.26;99922.66;4973055;28;45454;-62
2022/04/01 06:25:42;;;;;;;;;5.50;5.50;;;;;4.49;50.35;99920.06;4960358;28;45544;-59
2022/04/01 06:28:26;;;;;;;;;6.75;6.75;;;;;4.40;50.02;99912.28;4977154;28;48428;-62
2022/04/01 06:31:02;;;;;;;;;6.25;6.25;;;;;4.51;49.95;99936.53;4964638;28;46048;-62
2022/04/01 06:34:05;;;;;;;;;2.75;2.75;;;;;4.50;50.03;99932.22;4966805;28;45408;-61
2022/04/01 06:36:46;;;;;;;;;6.00;3.75;;;;;4.48;50.56;99935.69;4970396;28;45403;-61
2022/04/01 06:39:25;;;;;;;;;5.50;5.50;;;;;4.38;50.13;99919.22;4971502;28;48099;-61
2022/04/01 06:41:55;;;;;;;;;4.50;4.50;;;;;4.44;50.60;99934.81;4966110;28;45441;-61
2022/04/01 06:44:20;;;;;;;;;6.00;6.00;;;;;4.47;50.71;99946.97;4969981;28;45488;-60
2022/04/01 06:46:48;;;;;;;;;8.25;8.00;;;;;4.45;50.65;99948.69;4973798;28;45306;-60
2022/04/01 06:49:14;;;;;;;;;8.00;6.50;;;;;4.42;50.68;99943.50;4969621;28;46315;-60
2022/04/01 06:51:40;;;;;;;;;6.75;5.00;;;;;4.42;50.68;99946.09;4971436;28;45525;-60
2022/04/01 06:54:06;;;;;;;;;5.00;5.00;;;;;4.41;50.74;99965.19;4969135;28;45302;-59
2022/04/01 06:56:33;;;;;;;;;9.00;7.75;;;;;4.38;50.56;99969.50;4964397;28;45389;-59
2022/04/01 06:58:58;;;;;;;;;8.00;8.00;;;;;4.36;50.57;99957.38;4969310;28;46058;-59
2022/04/01 07:01:25;;;;;;;;;6.75;6.75;;;;;4.36;50.89;99968.63;4972646;28;45283;-60
2022/04/01 07:03:51;;;;;;;;;7.00;6.00;;;;;4.34;50.51;99970.41;4960185;28;45538;-59
2022/04/01 07:06:16;;;;;;;;;7.00;6.25;;;;;4.30;50.68;99965.19;4964927;28;46558;-60
2022/04/01 07:08:42;;;;;;;;;10.75;8.00;;;;;4.26;50.95;99966.91;4973263;28;46205;-62
2022/04/01 07:11:08;;;;;;;;;7.00;7.00;;;;;4.28;50.66;99967.78;4977344;27;45413;-62
2022/04/01 07:13:33;;;;;;;;;13.50;10.25;;;;;4.26;50.52;99972.13;4972801;28;45383;-53
2022/04/01 07:15:58;;;;;;;;;6.00;6.00;;;;;4.23;51.25;99975.59;4978751;28;45304;-51
2022/04/01 07:18:24;;;;;;;;;11.00;8.00;;;;;4.22;50.69;99970.41;4973527;28;46009;-54
2022/04/01 07:20:51;;;;;;;;;7.25;7.25;;;;;4.19;50.77;99975.63;4976188;28;45334;-53
2022/04/01 07:23:16;;;;;;;;;7.50;7.50;;;;;4.16;50.91;99976.44;4967828;28;45285;-58
2022/04/01 07:25:42;;;;;;;;;8.25;6.75;;;;;4.15;51.21;99984.25;4978662;28;45238;-55
2022/04/01 07:28:09;;;;;;;;;7.00;7.00;;;;;4.09;50.98;99985.16;4978413;28;46328;-55
2022/04/01 07:30:35;;;;;;;;;8.75;7.50;;;;;4.11;50.90;99987.75;4983920;28;45397;-60
2022/04/01 07:33:00;;;;;;;;;7.25;6.75;;;;;4.10;51.13;100001.59;4978391;28;45351;-62
2022/04/01 07:35:27;;;;;;;;;8.75;7.75;;;;;4.05;50.96;99989.47;4978454;28;45581;-59
2022/04/01 07:37:52;;;;;;;;;6.75;4.50;;;;;4.03;51.02;99991.19;4969748;28;46270;-53
2022/04/01 07:40:19;;;;;;;;;3.00;3.00;;;;;4.01;51.03;99994.66;4978258;28;45307;-57
2022/04/01 07:42:44;;;;;;;;;10.75;8.00;;;;;3.99;51.51;99999.00;4978579;28;45364;-61
2022/04/01 07:45:11;;;;;;;;;8.75;8.75;;;;;3.91;51.60;99988.56;4978355;28;45372;-62
2022/04/01 07:47:37;;;;;;;;;7.00;6.00;;;;;3.84;51.72;99992.91;4966957;28;45209;-60
2022/04/01 07:50:04;;;;;;;;;10.50;10.25;;;;;3.92;51.23;100007.66;4978288;28;45312;-61
2022/04/01 07:52:32;;;;;;;;;8.25;7.75;;;;;3.90;51.37;100010.28;4978542;28;45499;-62
2022/04/01 07:54:58;;;;;;;;;8.00;8.00;;;;;3.90;51.38;100011.13;4978135;28;45600;-62
2022/04/01 07:57:24;;;;;;;;;8.75;7.75;;;;;3.88;51.67;100014.59;4964689;28;45330;-62
2022/04/01 07:59:49;;;;;;;;;12.50;8.75;;;;;3.88;51.29;100018.03;4978155;27;45454;-59
2022/04/01 08:02:15;;;;;;;;;7.25;7.25;;;;;3.85;51.25;100012.84;4978250;28;45387;-59
2022/04/01 08:04:41;;;;;;;;;12.00;12.00;;;;;3.85;51.61;100025.84;4966226;28;45630;-57
2022/04/01 08:07:07;;;;;;;;;12.00;9.50;;;;;3.82;51.43;100023.22;4974686;28;46674;-59
2022/04/01 08:09:33;;;;;;;;;12.00;12.00;;;;;3.83;51.37;100019.75;4978021;28;45228;-58
2022/04/01 08:12:00;;;;;;;;;11.75;10.75;;;;;3.83;51.87;100026.72;4970768;28;45354;-59
2022/04/01 08:14:25;;;;;;;;;10.75;9.50;;;;;3.83;51.91;100034.50;4980673;28;45489;-59
2022/04/01 08:16:51;;;;;;;;;9.50;9.25;;;;;3.84;51.55;100046.66;4972535;28;46114;-54
2022/04/01 08:19:16;;;;;;;;;9.50;9.50;;;;;3.83;52.12;100044.91;4978078;28;45299;-55
2022/04/01 08:21:44;;;;;;;;;8.75;8.00;;;;;3.85;51.58;100049.25;4976974;28;45776;-57
2022/04/01 08:24:11;;;;;;;;;17.75;15.25;;;;;3.86;51.43;100055.28;4992552;28;46282;-59
2022/04/01 08:26:37;;;;;;;;;11.25;11.00;;;;;3.88;51.63;100048.38;4977543;28;46333;-55
2022/04/01 08:29:03;;;;;;;;;8.50;8.00;;;;;3.88;52.37;100057.03;4977796;27;45183;-57
2022/04/01 08:31:30;;;;;;;;;13.00;12.00;;;;;3.93;52.06;100069.19;4977666;28;45493;-60
2022/04/01 08:33:56;;;;;;;;;11.25;11.25;;;;;3.92;52.03;100057.06;4977823;28;45334;-59
2022/04/01 08:36:22;;;;;;;;;14.50;13.00;;;;;3.93;52.11;100067.44;4977634;28;46630;-55
2022/04/01 08:38:48;;;;;;;;;11.00;10.75;;;;;3.99;51.83;100069.22;4968763;28;45354;-55
2022/04/01 08:41:17;;;;;;;;;14.50;14.00;;;;;3.92;51.81;100075.25;4975043;28;45474;-53
2022/04/01 08:43:45;;;;;;;;;13.50;12.75;;;;;3.99;52.21;100088.28;4976180;28;46268;-57
2022/04/01 08:46:11;;;;;;;;;13.00;13.00;;;;;4.02;52.23;100096.06;4981383;28;45467;-55
2022/04/01 08:48:37;;;;;;;;;9.00;9.00;;;;;4.04;52.50;100096.94;4967484;28;45456;-58
2022/04/01 08:51:03;;;;;;;;;12.75;12.75;;;;;4.05;52.37;100103.88;4976194;28;45386;-61
2022/04/01 08:53:37;;;;;;;;;13.25;12.25;;;;;4.05;51.81;100103.88;4977585;28;45406;-62
2022/04/01 08:56:03;;;;;;;;;11.75;10.75;;;;;4.07;52.24;100109.97;4973630;27;46345;-61
2022/04/01 08:58:28;;;;;;;;;13.00;9.25;;;;;4.09;52.22;100099.56;4968576;28;45511;-58
2022/04/01 09:00:57;;;;;;;;;12.00;12.00;;;;;4.09;52.08;100114.28;4977428;28;45387;-59
2022/04/01 09:03:23;;;;;;;;;13.50;11.75;;;;;4.08;52.29;100118.63;4975781;28;45509;-59
2022/04/01 09:05:56;;;;;;;;;14.75;14.75;;;;;4.07;52.03;100125.56;4972556;28;47083;-57
2022/04/01 09:08:27;;;;;;;;;17.75;16.75;;;;;3.99;51.96;100110.81;4977097;28;45498;-59
2022/04/01 09:11:04;;;;;;;;;12.75;12.00;;;;;4.07;52.13;100122.97;4976083;28;45427;-59
2022/04/01 09:13:50;;;;;;;;;19.00;17.00;;;;;4.06;52.39;100131.63;4966856;28;45178;-57
2022/04/01 09:16:28;;;;;;;;;14.00;13.50;;;;;4.06;52.32;100136.84;4975097;28;45405;-61
2022/04/01 09:18:55;;;;;;;;;17.00;16.25;;;;;4.06;52.10;100138.53;4975254;28;45536;-60
2022/04/01 09:21:29;;;;;;;;;18.00;14.50;;;;;4.07;52.00;100137.69;4972296;28;45292;-60
2022/04/01 09:23:55;;;;;;;;;20.75;17.75;;;;;4.09;52.36;100145.47;4976431;28;45355;-57
2022/04/01 09:26:28;;;;;;;;;14.00;13.50;;;;;4.10;52.60;100136.81;4976857;28;45560;-58
2022/04/01 09:28:53;;;;;;;;;17.25;15.50;;;;;4.11;52.24;100138.56;4977001;28;45435;-58
2022/04/01 09:31:20;;;;;;;;;16.00;13.75;;;;;4.12;52.07;100142.91;4977002;28;45236;-52
2022/04/01 09:33:47;;;;;;;;;17.25;16.00;;;;;4.14;52.68;100141.16;4976982;28;45254;-54
2022/04/01 09:36:22;;;;;;;;;15.50;15.50;;;;;4.16;52.38;100160.25;4971171;28;46401;-52
2022/04/01 09:39:00;;;;;;;;;14.75;14.75;;;;;4.16;52.11;100155.91;4976791;28;45247;-52
2022/04/01 09:41:55;;;;;;;;;14.00;13.00;;;;;4.19;52.78;100152.47;4976657;28;45225;-56
2022/04/01 09:44:35;;;;;;;;;16.00;16.00;;;;;4.04;52.57;100130.75;4971667;28;45438;-55
2022/04/01 09:47:06;;;;;;;;;19.75;16.75;;;;;4.21;52.15;100161.13;4976300;28;45361;-53
2022/04/01 09:49:31;;;;;;;;;15.50;13.00;;;;;4.23;52.73;100162.00;4991322;28;45392;-57
2022/04/01 09:51:57;;;;;;;;;19.00;17.00;;;;;4.24;52.64;100166.34;4976617;27;45404;-51
2022/04/01 09:54:26;;;;;;;;;17.25;17.25;;;;;4.27;52.38;100165.50;4976519;28;45556;-58
2022/04/01 09:56:54;;;;;;;;;17.75;16.50;;;;;4.30;52.19;100175.88;4965444;28;45420;-57
2022/04/01 09:59:21;;;;;;;;;18.25;15.25;;;;;4.29;52.39;100171.56;4972886;28;45521;-58
2022/04/01 10:01:47;;;;;;;;;16.75;14.25;;;;;4.34;52.36;100175.91;4976514;28;45174;-59
2022/04/01 10:04:15;;;;;;;;;17.50;13.50;;;;;4.37;52.50;100183.72;4979453;28;45352;-57
2022/04/01 10:06:42;;;;;;;;;15.75;15.75;;;;;4.41;53.00;100188.94;4968114;28;45558;-58
2022/04/01 10:09:11;;;;;;;;;15.00;13.75;;;;;4.45;52.50;100185.47;4955429;28;45497;-59
2022/04/01 10:11:40;;;;;;;;;14.25;13.00;;;;;4.48;52.47;100194.16;4955873;28;45527;-58
2022/04/01 10:14:35;;;;;;;;;18.50;14.25;;;;;4.50;52.46;100189.84;5004487;28;45472;-58
2022/04/01 10:17:03;;;;;;;;;12.75;12.00;;;;;4.56;52.42;100194.16;4980192;28;46111;-59
2022/04/01 10:19:32;;;;;;;;;14.50;11.50;;;;;4.61;52.70;100196.78;4989306;28;45337;-59
2022/04/01 10:21:59;;;;;;;;;13.50;11.75;;;;;4.65;52.48;100199.38;4983476;28;45238;-59
2022/04/01 10:24:24;;;;;;;;;15.00;15.00;;;;;4.67;52.74;100202.00;4977395;28;45439;-59
2022/04/01 10:27:23;;;;;;;;;14.25;11.75;;;;;4.73;52.40;100202.00;4987449;28;47398;-59
2022/04/01 10:29:49;;;;;;;;;15.00;14.25;;;;;4.78;52.65;100195.06;4959494;28;45322;-59
2022/04/01 10:32:28;;;;;;;;;13.75;12.25;;;;;4.83;52.56;100208.06;4959932;28;45509;-59
2022/04/01 10:34:57;;;;;;;;;12.25;11.75;;;;;4.86;52.47;100208.09;4960046;28;45289;-58
2022/04/01 10:37:25;;;;;;;;;16.75;14.00;;;;;4.91;52.42;100210.72;4959865;28;47107;-58
2022/04/01 10:40:00;;;;;;;;;17.75;14.00;;;;;4.95;52.30;100207.22;4959907;28;45193;-58
2022/04/01 10:42:30;;;;;;;;;13.50;13.50;;;;;4.96;52.10;100211.56;4958673;28;45274;-58
2022/04/01 10:44:58;;;;;;;;;14.25;13.25;;;;;5.02;52.68;100224.59;4960080;28;45490;-58
2022/04/01 10:53:46;;;;;;;;;9.75;9.75;;;;;5.10;52.52;100238.47;4959722;28;45441;-58
2022/04/01 10:56:41;;;;;;;;;18.00;15.25;;;;;5.15;52.31;100241.94;4959679;28;45287;-59
2022/04/01 10:59:09;;;;;;;;;14.00;13.75;;;;;5.17;52.18;100245.44;4954885;28;46146;-58
2022/04/01 11:01:53;;;;;;;;;15.00;12.25;;;;;5.21;52.36;100248.91;4959274;28;45526;-59
2022/04/01 11:04:18;;;;;;;;;14.00;14.00;;;;;5.24;52.34;100250.66;4959666;28;45230;-59
2022/04/01 11:07:00;;;;;;;;;12.25;11.50;;;;;5.26;52.30;100251.50;4963633;28;45407;-59
2022/04/01 11:09:36;;;;;;;;;15.00;13.75;;;;;5.28;52.34;100247.16;4966922;28;48415;-59
2022/04/01 11:12:21;;;;;;;;;13.50;13.50;;;;;5.30;52.11;100259.31;4966208;28;45525;-60
2022/04/01 11:15:07;;;;;;;;;13.00;13.00;;;;;5.32;52.38;100264.53;4972178;28;45410;-59
2022/04/01 11:17:41;;;;;;;;;14.75;14.50;;;;;5.35;51.98;100260.19;4959434;28;45321;-59
2022/04/01 11:20:07;;;;;;;;;16.00;14.50;;;;;5.37;52.13;100273.22;4966134;28;46137;-58
2022/04/01 11:22:39;;;;;;;;;13.00;11.75;;;;;5.39;51.68;100265.41;4978681;28;45455;-59
2022/04/01 11:25:06;;;;;;;;;16.00;15.00;;;;;5.40;52.20;100267.16;5004387;28;45212;-59
2022/04/01 11:27:33;;;;;;;;;16.00;16.00;;;;;5.37;51.81;100268.88;4989047;27;45379;-58
2022/04/01 11:30:06;;;;;;;;;20.25;16.75;;;;;5.42;52.14;100271.50;4958980;28;46174;-58
2022/04/01 11:32:35;;;;;;;;;18.25;16.00;;;;;5.37;52.08;100262.78;4958542;28;45256;-58
2022/04/01 11:35:01;;;;;;;;;14.75;14.00;;;;;5.48;52.03;100271.47;4959178;28;45432;-59
2022/04/01 11:37:27;;;;;;;;;15.50;15.50;;;;;5.51;52.02;100273.22;4958971;28;45277;-59
2022/04/01 11:39:52;;;;;;;;;17.00;15.25;;;;;5.52;51.93;100277.53;4958788;28;46240;-57
2022/04/01 11:42:18;;;;;;;;;15.00;13.00;;;;;5.54;51.92;100273.22;4959091;28;45339;-57
2022/04/01 11:44:55;;;;;;;;;14.00;11.25;;;;;5.56;52.00;100287.13;4967209;28;45399;-58
2022/04/01 11:47:32;;;;;;;;;17.00;14.25;;;;;5.58;52.01;100281.91;4961412;28;45478;-58
2022/04/01 11:50:13;;;;;;;;;16.25;16.00;;;;;5.59;51.96;100274.06;4958893;28;46298;-58
2022/04/01 11:52:45;;;;;;;;;15.75;14.75;;;;;5.59;51.82;100292.31;4966545;28;45292;-59
2022/04/01 11:55:23;;;;;;;;;15.75;13.00;;;;;5.61;51.59;100292.31;4978122;28;45367;-59
2022/04/01 11:57:51;;;;;;;;;12.50;12.50;;;;;5.48;51.78;100276.66;4978513;28;45530;-59